createdAt,value
2019-01-19T00:02:09.945Z,77.11
2019-01-19T00:05:36.812Z,77.20
2019-01-19T00:08:29.584Z,77.23
2019-01-19T00:11:51.667Z,77.18
2019-01-19T00:14:29.398Z,77.07
2019-01-19T00:17:53.496Z,77.09
2019-01-19T00:21:16.332Z,77.02
2019-01-19T00:24:26.979Z,76.97
2019-01-19T00:27:45.199Z,77.13
2019-01-19T00:30:33.096Z,77.07
2019-01-19T00:33:35.562Z,77.12
2019-01-19T00:36:43.033Z,77.18
2019-01-19T00:39:29.968Z,77.12
2019-01-19T00:42:31.020Z,77.15
2019-01-19T00:45:29.615Z,77.22
2019-01-19T00:48:18.660Z,77.43
2019-01-19T00:51:25.928Z,77.54
2019-01-19T00:54:08.295Z,77.67
2019-01-19T00:57:18.463Z,77.85
2019-01-19T00:59:49.770Z,78.00
2019-01-19T01:02:54.394Z,78.20
2019-01-19T01:05:36.827Z,78.44
2019-01-19T01:08:39.144Z,78.62
2019-01-19T01:11:21.465Z,79.26
2019-01-19T01:14:39.439Z,79.76
2019-01-19T01:17:38.053Z,79.64
2019-01-19T01:20:36.952Z,79.38
2019-01-19T01:23:26.507Z,78.95
2019-01-19T01:26:33.960Z,78.54
2019-01-19T01:29:53.833Z,78.39
2019-01-19T01:32:51.139Z,78.34
2019-01-19T01:35:49.035Z,78.29
2019-01-19T01:38:46.607Z,78.25
2019-01-19T01:42:04.454Z,78.19
2019-01-19T01:45:31.469Z,78.10
2019-01-19T01:48:34.282Z,78.05
2019-01-19T01:51:22.072Z,78.01
2019-01-19T01:54:01.016Z,78.00
2019-01-19T01:56:28.245Z,77.92
2019-01-19T01:59:23.799Z,78.01
2019-01-19T02:02:34.617Z,78.04
2019-01-19T02:05:40.623Z,78.11
2019-01-19T02:08:51.344Z,78.13
2019-01-19T02:11:49.356Z,78.25
2019-01-19T02:14:56.957Z,78.29
2019-01-19T02:18:14.433Z,78.25
2019-01-19T02:21:08.199Z,78.14
2019-01-19T02:24:12.845Z,78.17
2019-01-19T02:27:30.350Z,78.06
2019-01-19T02:30:35.486Z,77.71
2019-01-19T02:33:44.126Z,77.32
2019-01-19T02:36:17.372Z,77.07
2019-01-19T02:39:31.915Z,76.74
2019-01-19T02:42:43.902Z,76.63
2019-01-19T02:45:33.245Z,76.45
2019-01-19T02:49:00.081Z,76.09
2019-01-19T02:51:56.973Z,76.19
2019-01-19T02:55:06.177Z,76.46
2019-01-19T02:57:59.908Z,76.51
2019-01-19T03:01:11.593Z,76.54
2019-01-19T03:04:14.100Z,76.61
2019-01-19T03:07:20.504Z,76.84
2019-01-19T03:09:59.040Z,76.69
2019-01-19T03:12:50.009Z,76.76
2019-01-19T03:15:58.912Z,76.81
2019-01-19T03:18:56.344Z,76.85
2019-01-19T03:22:05.318Z,76.84
2019-01-19T03:24:52.925Z,76.80
2019-01-19T03:27:37.048Z,76.90
2019-01-19T03:30:35.206Z,77.00
2019-01-19T03:33:38.795Z,76.96
2019-01-19T03:36:46.387Z,77.16
2019-01-19T03:40:10.751Z,77.16
2019-01-19T03:43:15.707Z,77.39
2019-01-19T03:46:32.127Z,77.80
2019-01-19T03:49:42.990Z,78.02
2019-01-19T03:52:40.043Z,78.18
2019-01-19T03:55:55.034Z,78.29
2019-01-19T03:58:57.738Z,78.24
2019-01-19T04:01:50.342Z,78.23
2019-01-19T04:05:04.766Z,78.24
2019-01-19T04:08:01.065Z,78.26
2019-01-19T04:10:44.420Z,78.29
2019-01-19T04:14:04.185Z,78.46
2019-01-19T04:17:26.388Z,78.58
2019-01-19T04:20:49.072Z,78.84
2019-01-19T04:23:16.590Z,78.83
2019-01-19T04:25:56.988Z,78.84
2019-01-19T04:28:25.823Z,78.89
2019-01-19T04:30:53.027Z,78.92
2019-01-19T04:33:20.179Z,78.92
2019-01-19T04:35:47.303Z,78.84
2019-01-19T04:38:14.457Z,78.83
2019-01-19T04:40:41.646Z,78.75
2019-01-19T04:43:08.859Z,78.76
2019-01-19T04:45:36.330Z,78.71
2019-01-19T04:48:03.534Z,78.62
2019-01-19T04:50:30.631Z,78.41
2019-01-19T04:52:57.780Z,78.28
2019-01-19T04:55:24.867Z,78.38
2019-01-19T04:57:52.217Z,78.53
2019-01-19T05:00:19.356Z,78.72
2019-01-19T05:02:46.506Z,78.71
2019-01-19T05:05:13.989Z,78.80
2019-01-19T05:07:41.136Z,78.97
2019-01-19T05:10:08.494Z,79.00
2019-01-19T05:12:36.282Z,78.98
2019-01-19T05:15:06.938Z,79.05
2019-01-19T05:17:34.120Z,78.99
2019-01-19T05:20:01.416Z,79.01
2019-01-19T05:22:28.690Z,79.04
2019-01-19T05:24:55.868Z,79.00
2019-01-19T05:27:23.044Z,78.95
2019-01-19T05:29:50.234Z,79.02
2019-01-19T05:32:17.405Z,78.98
2019-01-19T05:34:44.694Z,78.91
2019-01-19T05:37:12.158Z,79.06
2019-01-19T05:39:39.340Z,79.27
2019-01-19T05:42:06.791Z,79.45
2019-01-19T05:44:34.027Z,79.50
2019-01-19T05:47:01.240Z,79.45
2019-01-19T05:49:28.689Z,79.45
2019-01-19T05:51:56.493Z,79.41
2019-01-19T05:54:23.727Z,79.27
2019-01-19T05:56:50.821Z,79.20
2019-01-19T05:59:18.000Z,79.28
2019-01-19T06:01:45.082Z,79.18
2019-01-19T06:04:12.279Z,79.18
2019-01-19T06:06:46.569Z,79.19
2019-01-19T06:09:08.625Z,79.25
2019-01-19T06:11:35.848Z,79.42
2019-01-19T06:14:03.242Z,79.64
2019-01-19T06:16:30.430Z,79.86
2019-01-19T06:18:58.212Z,79.92
2019-01-19T06:21:29.253Z,79.96
2019-01-19T06:23:56.426Z,79.96
2019-01-19T06:26:23.977Z,80.04
2019-01-19T06:28:51.184Z,80.05
2019-01-19T06:31:18.369Z,80.06
2019-01-19T06:33:45.531Z,80.08
2019-01-19T06:36:12.698Z,80.09
2019-01-19T06:38:39.784Z,80.11
2019-01-19T06:41:07.022Z,80.16
2019-01-19T06:43:34.075Z,80.23
2019-01-19T06:46:01.282Z,80.39
2019-01-19T06:48:28.467Z,80.44
2019-01-19T06:50:55.889Z,80.52
2019-01-19T06:53:23.047Z,80.62
2019-01-19T06:55:50.284Z,80.75
2019-01-19T06:58:17.454Z,80.84
2019-01-19T07:00:44.653Z,80.74
2019-01-19T07:03:12.157Z,80.59
2019-01-19T07:05:39.219Z,80.32
2019-01-19T07:08:06.431Z,80.03
2019-01-19T07:10:33.846Z,79.89
2019-01-19T07:13:01.017Z,79.82
2019-01-19T07:15:28.264Z,79.73
2019-01-19T07:17:55.399Z,79.68
2019-01-19T07:20:27.422Z,79.57
2019-01-19T07:22:54.615Z,79.49
2019-01-19T07:25:21.826Z,79.45
2019-01-19T07:27:48.987Z,79.44
2019-01-19T07:30:16.279Z,79.27
2019-01-19T07:32:43.735Z,79.10
2019-01-19T07:35:11.045Z,78.95
2019-01-19T07:37:38.199Z,78.86
2019-01-19T07:40:07.174Z,78.67
2019-01-19T07:42:35.231Z,78.52
2019-01-19T07:45:02.864Z,78.43
2019-01-19T07:47:30.273Z,78.22
2019-01-19T07:49:57.457Z,77.86
2019-01-19T07:52:24.933Z,77.42
2019-01-19T07:54:52.206Z,77.34
2019-01-19T07:57:19.368Z,77.32
2019-01-19T07:59:46.542Z,74.58
2019-01-19T08:02:13.640Z,72.87
2019-01-19T08:04:41.131Z,71.51
2019-01-19T08:07:08.239Z,68.30
2019-01-19T08:09:35.444Z,64.37
2019-01-19T08:12:02.663Z,59.67
2019-01-19T08:14:29.845Z,54.66
2019-01-19T08:16:57.219Z,52.35
2019-01-19T08:19:24.395Z,52.25
2019-01-19T08:21:51.594Z,53.40
2019-01-19T08:24:18.781Z,55.85
2019-01-19T08:26:46.026Z,58.25
2019-01-19T08:29:13.204Z,59.30
2019-01-19T08:31:40.452Z,59.67
2019-01-19T08:34:07.604Z,60.97
2019-01-19T08:36:34.779Z,62.07
2019-01-19T08:39:03.240Z,63.13
2019-01-19T08:41:30.404Z,63.99
2019-01-19T08:44:00.198Z,64.83
2019-01-19T08:46:27.432Z,65.31
2019-01-19T08:48:54.498Z,65.86
2019-01-19T08:51:21.703Z,66.04
2019-01-19T08:53:48.819Z,66.10
2019-01-19T08:56:16.256Z,66.46
2019-01-19T08:58:43.706Z,66.72
2019-01-19T09:01:10.909Z,66.70
2019-01-19T09:03:38.073Z,66.83
2019-01-19T09:06:05.265Z,66.71
2019-01-19T09:08:32.703Z,66.75
2019-01-19T09:10:59.962Z,66.79
2019-01-19T09:13:27.128Z,66.84
2019-01-19T09:15:59.700Z,66.64
2019-01-19T09:18:26.980Z,66.68
2019-01-19T09:20:54.173Z,66.08
2019-01-19T09:23:25.993Z,66.00
2019-01-19T09:25:53.190Z,65.92
2019-01-19T09:28:20.377Z,65.70
2019-01-19T09:30:47.477Z,65.91
2019-01-19T09:33:14.555Z,65.58
2019-01-19T09:35:41.649Z,65.21
2019-01-19T09:38:12.324Z,65.13
2019-01-19T09:40:39.841Z,65.27
2019-01-19T09:43:12.808Z,65.53
2019-01-19T09:45:40.524Z,65.44
2019-01-19T09:48:11.327Z,65.23
2019-01-19T09:50:39.325Z,64.77
2019-01-19T09:53:06.810Z,64.89
2019-01-19T09:55:33.984Z,64.68
2019-01-19T09:58:01.172Z,63.17
2019-01-19T10:00:35.483Z,63.33
2019-01-19T10:02:57.784Z,62.83
2019-01-19T10:05:25.011Z,62.09
2019-01-19T10:07:52.386Z,62.08
2019-01-19T10:10:19.661Z,62.16
2019-01-19T10:12:46.804Z,62.24
2019-01-19T10:15:14.668Z,62.66
2019-01-19T10:17:41.720Z,62.75
2019-01-19T10:20:11.834Z,62.88
2019-01-19T10:22:39.364Z,62.45
2019-01-19T10:25:08.040Z,62.14
2019-01-19T10:27:37.448Z,61.95
2019-01-19T10:30:07.379Z,61.89
2019-01-19T10:32:34.637Z,61.98
2019-01-19T10:35:02.039Z,62.24
2019-01-19T10:37:29.218Z,61.74
2019-01-19T10:39:56.409Z,61.88
2019-01-19T10:42:23.587Z,61.46
2019-01-19T10:44:50.843Z,61.12
2019-01-19T10:47:18.022Z,61.40
2019-01-19T10:49:45.218Z,62.00
2019-01-19T10:52:12.448Z,61.39
2019-01-19T10:54:39.619Z,61.01
2019-01-19T10:57:06.848Z,60.89
2019-01-19T10:59:33.915Z,60.90
2019-01-19T11:02:02.585Z,60.46
2019-01-19T11:04:29.722Z,60.35
2019-01-19T11:06:56.932Z,60.31
2019-01-19T11:09:24.111Z,60.17
2019-01-19T11:11:51.607Z,60.83
2019-01-19T11:14:18.818Z,60.75
2019-01-19T11:16:45.986Z,60.88
2019-01-19T11:19:13.165Z,60.30
2019-01-19T11:21:40.378Z,59.92
2019-01-19T11:24:07.800Z,59.72
2019-01-19T11:26:34.962Z,60.06
2019-01-19T11:29:02.492Z,60.10
2019-01-19T11:31:29.660Z,59.22
2019-01-19T11:33:56.831Z,59.53
2019-01-19T11:36:24.057Z,59.88
2019-01-19T11:38:51.254Z,59.15
2019-01-19T11:41:18.572Z,59.51
2019-01-19T11:43:45.812Z,60.07
2019-01-19T11:46:12.870Z,59.61
2019-01-19T11:48:40.032Z,59.45
2019-01-19T11:51:07.259Z,59.13
2019-01-19T11:53:34.799Z,59.56
2019-01-19T11:56:01.971Z,59.64
2019-01-19T11:58:29.185Z,58.97
2019-01-19T12:00:56.343Z,58.65
2019-01-19T12:03:23.457Z,58.63
2019-01-19T12:05:50.813Z,58.70
2019-01-19T12:08:19.649Z,58.83
2019-01-19T12:10:47.094Z,58.67
2019-01-19T12:13:14.320Z,57.82
2019-01-19T12:15:41.494Z,57.70
2019-01-19T12:18:08.685Z,57.75
2019-01-19T12:20:41.086Z,57.42
2019-01-19T12:23:08.851Z,58.08
2019-01-19T12:25:36.036Z,58.25
2019-01-19T12:28:03.177Z,57.94
2019-01-19T12:30:30.551Z,57.89
2019-01-19T12:32:57.627Z,57.15
2019-01-19T12:35:24.820Z,56.26
2019-01-19T12:37:52.091Z,56.40
2019-01-19T12:40:20.563Z,55.94
2019-01-19T12:42:49.883Z,55.66
2019-01-19T12:45:38.221Z,54.96
2019-01-19T12:48:05.313Z,55.41
2019-01-19T12:50:32.610Z,53.85
2019-01-19T12:52:59.802Z,53.41
2019-01-19T12:55:27.067Z,53.55
2019-01-19T12:57:54.240Z,53.62
2019-01-19T13:00:23.296Z,54.22
2019-01-19T13:02:50.745Z,54.29
2019-01-19T13:05:42.045Z,54.74
2019-01-19T13:08:11.647Z,54.74
2019-01-19T13:10:42.804Z,53.60
2019-01-19T13:13:21.732Z,52.78
2019-01-19T13:16:23.771Z,52.31
2019-01-19T13:19:25.215Z,52.66
2019-01-19T13:22:27.688Z,53.20
2019-01-19T13:25:29.562Z,52.87
2019-01-19T13:28:42.711Z,53.36
2019-01-19T13:31:41.319Z,53.52
2019-01-19T13:34:45.710Z,55.12
2019-01-19T13:37:52.043Z,55.93
2019-01-19T13:41:10.412Z,55.67
2019-01-19T13:44:20.698Z,55.90
2019-01-19T13:47:51.115Z,56.07
2019-01-19T13:50:48.677Z,56.52
2019-01-19T13:54:00.464Z,55.70
2019-01-19T13:56:40.991Z,55.71
2019-01-19T13:59:28.636Z,55.85
2019-01-19T14:02:39.768Z,55.74
2019-01-19T14:05:45.950Z,55.63
2019-01-19T14:08:52.158Z,55.94
2019-01-19T14:12:00.139Z,55.95
2019-01-19T14:14:41.720Z,55.89
2019-01-19T14:17:39.097Z,55.50
2019-01-19T14:20:42.311Z,55.32
2019-01-19T14:23:31.200Z,55.39
2019-01-19T14:26:25.345Z,55.50
2019-01-19T14:29:34.073Z,55.61
2019-01-19T14:32:13.541Z,55.28
2019-01-19T14:34:56.341Z,54.07
2019-01-19T14:38:10.200Z,54.69
2019-01-19T14:41:18.258Z,53.75
2019-01-19T14:44:27.161Z,53.87
2019-01-19T14:47:16.259Z,53.02
2019-01-19T14:50:37.336Z,52.46
2019-01-19T14:54:10.283Z,52.95
2019-01-19T14:57:01.262Z,53.60
2019-01-19T15:00:07.333Z,52.68
2019-01-19T15:03:22.418Z,51.70
2019-01-19T15:06:22.975Z,51.54
2019-01-19T15:09:03.962Z,51.42
2019-01-19T15:12:24.319Z,51.90
2019-01-19T15:15:39.536Z,52.27
2019-01-19T15:18:36.499Z,52.25
2019-01-19T15:21:40.516Z,52.82
2019-01-19T15:24:38.205Z,53.35
2019-01-19T15:27:49.852Z,53.67
2019-01-19T15:30:32.659Z,53.34
2019-01-19T15:33:25.996Z,53.36
2019-01-19T15:36:05.557Z,54.00
2019-01-19T15:39:26.820Z,54.60
2019-01-19T15:42:38.602Z,51.23
2019-01-19T15:45:29.782Z,51.87
2019-01-19T15:48:34.891Z,51.60
2019-01-19T15:52:00.253Z,49.02
2019-01-19T15:54:53.899Z,45.84
2019-01-19T15:58:14.863Z,46.06
2019-01-19T16:01:15.399Z,45.18
2019-01-19T16:04:14.308Z,44.86
2019-01-19T16:07:10.700Z,45.84
2019-01-19T16:10:08.905Z,45.54
2019-01-19T16:13:07.465Z,45.53
2019-01-19T16:16:01.696Z,45.73
2019-01-19T16:19:18.079Z,45.75
2019-01-19T16:22:45.073Z,46.48
2019-01-19T16:26:11.491Z,47.53
2019-01-19T16:29:23.757Z,48.67
2019-01-19T16:32:25.624Z,49.34
2019-01-19T16:35:34.710Z,49.04
2019-01-19T16:38:37.991Z,50.17
2019-01-19T16:41:47.218Z,50.84
2019-01-19T16:44:54.020Z,51.90
2019-01-19T16:47:42.338Z,52.46
2019-01-19T16:50:51.345Z,53.65
2019-01-19T16:53:47.989Z,54.05
2019-01-19T16:56:59.630Z,54.95
2019-01-19T16:59:57.823Z,54.90
2019-01-19T17:02:58.051Z,55.59
2019-01-19T17:05:57.525Z,56.61
2019-01-19T17:09:10.119Z,57.24
2019-01-19T17:12:15.571Z,58.20
2019-01-19T17:15:26.131Z,57.95
2019-01-19T17:18:40.482Z,57.54
2019-01-19T17:22:03.301Z,57.79
2019-01-19T17:24:54.876Z,57.64
2019-01-19T17:28:16.239Z,58.75
2019-01-19T17:31:10.094Z,59.41
2019-01-19T17:34:00.763Z,59.52
2019-01-19T17:36:43.364Z,60.44
2019-01-19T17:40:06.609Z,61.45
2019-01-19T17:43:25.894Z,62.06
2019-01-19T17:46:16.363Z,63.07
2019-01-19T17:49:11.731Z,63.84
2019-01-19T17:52:23.908Z,64.19
2019-01-19T17:55:34.329Z,64.09
2019-01-19T17:58:37.158Z,64.22
2019-01-19T18:01:31.409Z,65.19
2019-01-19T18:04:27.318Z,64.94
2019-01-19T18:07:07.510Z,64.15
2019-01-19T18:10:09.629Z,64.29
2019-01-19T18:13:03.703Z,63.37
2019-01-19T18:16:16.004Z,62.58
2019-01-19T18:19:37.809Z,61.98
2019-01-19T18:22:54.616Z,61.71
2019-01-19T18:26:02.987Z,60.00
2019-01-19T18:28:45.375Z,60.29
2019-01-19T18:31:46.736Z,60.11
2019-01-19T18:34:29.578Z,59.40
2019-01-19T18:37:26.587Z,59.26
2019-01-19T18:40:15.587Z,58.83
2019-01-19T18:43:22.697Z,58.90
2019-01-19T18:46:24.777Z,59.41
2019-01-19T18:49:34.729Z,59.92
2019-01-19T18:52:45.129Z,60.58
2019-01-19T18:55:42.004Z,60.48
2019-01-19T18:58:45.669Z,60.51
2019-01-19T19:01:54.934Z,60.45
2019-01-19T19:05:08.769Z,59.98
2019-01-19T19:08:31.299Z,59.58
2019-01-19T19:11:31.223Z,59.36
2019-01-19T19:14:24.755Z,58.69
2019-01-19T19:17:35.092Z,58.01
2019-01-19T19:20:22.338Z,58.19
2019-01-19T19:23:14.461Z,57.94
2019-01-19T19:26:19.300Z,58.13
2019-01-19T19:29:16.781Z,58.02
2019-01-19T19:32:27.765Z,58.62
2019-01-19T19:35:33.979Z,58.36
2019-01-19T19:38:50.449Z,58.53
2019-01-19T19:41:47.475Z,58.62
2019-01-19T19:44:50.777Z,58.90
2019-01-19T19:48:23.767Z,59.11
2019-01-19T19:51:29.021Z,58.90
2019-01-19T19:53:56.127Z,58.68
2019-01-19T19:56:22.314Z,58.19
2019-01-19T19:58:49.550Z,56.75
2019-01-19T20:01:17.050Z,56.80
2019-01-19T20:03:44.270Z,57.04
2019-01-19T20:06:11.501Z,55.65
2019-01-19T20:08:38.696Z,55.29
2019-01-19T20:11:05.882Z,55.15
2019-01-19T20:13:33.105Z,55.39
2019-01-19T20:16:00.278Z,55.31
2019-01-19T20:18:27.474Z,55.21
2019-01-19T20:20:54.573Z,55.14
2019-01-19T20:23:21.812Z,55.63
2019-01-19T20:25:49.252Z,55.52
2019-01-19T20:28:16.457Z,55.67
2019-01-19T20:30:43.633Z,56.02
2019-01-19T20:33:10.799Z,56.39
2019-01-19T20:35:37.924Z,56.76
2019-01-19T20:38:07.675Z,57.23
2019-01-19T20:40:34.857Z,57.90
2019-01-19T20:43:02.064Z,58.47
2019-01-19T20:45:29.268Z,58.69
2019-01-19T20:47:56.386Z,58.54
2019-01-19T20:50:23.585Z,57.85
2019-01-19T20:52:50.808Z,57.82
2019-01-19T20:55:17.989Z,59.88
2019-01-19T20:57:45.261Z,61.04
2019-01-19T21:00:16.136Z,61.73
2019-01-19T21:02:43.889Z,62.29
2019-01-19T21:05:11.107Z,62.47
2019-01-19T21:07:38.259Z,62.70
2019-01-19T21:10:05.573Z,62.98
2019-01-19T21:12:32.762Z,63.39
2019-01-19T21:14:59.872Z,63.79
2019-01-19T21:17:31.696Z,64.19
2019-01-19T21:19:59.030Z,64.53
2019-01-19T21:22:26.225Z,65.01
2019-01-19T21:24:53.418Z,63.66
2019-01-19T21:27:20.637Z,62.92
2019-01-19T21:29:47.872Z,63.00
2019-01-19T21:32:15.087Z,62.90
2019-01-19T21:34:42.347Z,62.97
2019-01-19T21:37:09.524Z,62.94
2019-01-19T21:39:36.752Z,62.88
2019-01-19T21:42:04.067Z,63.02
2019-01-19T21:44:31.220Z,63.24
2019-01-19T21:46:58.413Z,63.44
2019-01-19T21:49:25.614Z,63.53
2019-01-19T21:51:52.683Z,63.83
2019-01-19T21:54:19.861Z,63.53
2019-01-19T21:56:46.998Z,63.79
2019-01-19T21:59:14.215Z,63.39
2019-01-19T22:01:41.427Z,63.53
2019-01-19T22:04:08.608Z,63.99
2019-01-19T22:06:35.778Z,64.18
2019-01-19T22:09:05.553Z,64.10
2019-01-19T22:11:33.005Z,64.65
2019-01-19T22:14:00.224Z,64.49
2019-01-19T22:16:27.726Z,64.69
2019-01-19T22:18:54.936Z,64.44
2019-01-19T22:21:22.127Z,64.83
2019-01-19T22:23:49.254Z,65.42
2019-01-19T22:26:18.853Z,65.84
2019-01-19T22:28:46.131Z,66.36
2019-01-19T22:31:13.324Z,66.66
2019-01-19T22:33:40.535Z,66.83
2019-01-19T22:36:07.703Z,66.80
2019-01-19T22:38:34.833Z,66.76
2019-01-19T22:41:02.023Z,66.71
2019-01-19T22:43:31.101Z,66.50
2019-01-19T22:45:58.312Z,66.30
2019-01-19T22:48:25.502Z,66.03
2019-01-19T22:50:52.635Z,65.90
2019-01-19T22:53:20.094Z,66.30
2019-01-19T22:55:47.374Z,66.86
2019-01-19T22:58:14.586Z,67.54
2019-01-19T23:01:07.498Z,67.83
2019-01-19T23:03:36.001Z,68.38
2019-01-19T23:06:03.438Z,68.55
2019-01-19T23:08:30.655Z,68.80
2019-01-19T23:11:01.362Z,68.93
2019-01-19T23:13:27.170Z,69.13
2019-01-19T23:15:54.638Z,68.75
2019-01-19T23:18:21.828Z,67.86
2019-01-19T23:20:49.042Z,67.41
2019-01-19T23:23:16.232Z,66.90
2019-01-19T23:25:43.297Z,67.24
2019-01-19T23:28:10.489Z,68.08
2019-01-19T23:30:37.603Z,69.24
2019-01-19T23:33:05.072Z,70.22
2019-01-19T23:35:32.165Z,70.57
2019-01-19T23:37:59.363Z,70.92
2019-01-19T23:40:26.536Z,71.35
2019-01-19T23:42:53.729Z,70.35
2019-01-19T23:45:20.933Z,70.29
2019-01-19T23:47:48.026Z,70.80
2019-01-19T23:50:15.219Z,70.93
2019-01-19T23:52:42.711Z,71.38
2019-01-19T23:55:10.531Z,71.70
2019-01-19T23:57:37.733Z,71.43
